sensor_id;sensor_type;location;lat;lon;timestamp;pressure;altitude;pressure_sealevel;temperature;humidity
9189;BME280;34313;50.780;6.084;2023-08-12T00:00:39;99730.31;;;20.24;100.00
9189;BME280;34313;50.780;6.084;2023-08-12T00:03:04;99722.56;;;20.21;100.00
9189;BME280;34313;50.780;6.084;2023-08-12T00:05:29;99729.44;;;20.33;100.00
9189;BME280;34313;50.780;6.084;2023-08-12T00:07:55;99728.84;;;20.39;100.00
9189;BME280;34313;50.780;6.084;2023-08-12T00:10:20;99692.72;;;20.16;100.00
9189;BME280;34313;50.780;6.084;2023-08-12T00:12:46;99688.66;;;20.12;100.00
9189;BME280;34313;50.780;6.084;2023-08-12T00:15:11;99701.75;;;20.15;100.00
9189;BME280;34313;50.780;6.084;2023-08-12T00:17:37;99725.78;;;20.34;100.00
9189;BME280;34313;50.780;6.084;2023-08-12T00:20:04;99724.63;;;20.37;100.00
9189;BME280;34313;50.780;6.084;2023-08-12T00:22:35;99728.03;;;20.39;100.00
9189;BME280;34313;50.780;6.084;2023-08-12T00:25:01;99694.00;;;20.21;100.00
9189;BME280;34313;50.780;6.084;2023-08-12T00:27:26;99701.53;;;20.36;100.00
9189;BME280;34313;50.780;6.084;2023-08-12T00:29:51;99687.91;;;20.29;100.00
9189;BME280;34313;50.780;6.084;2023-08-12T00:32:17;99712.09;;;20.37;100.00
9189;BME280;34313;50.780;6.084;2023-08-12T00:34:42;99704.75;;;20.39;100.00
9189;BME280;34313;50.780;6.084;2023-08-12T00:37:08;99699.56;;;20.38;100.00
9189;BME280;34313;50.780;6.084;2023-08-12T00:39:33;99719.94;;;20.49;100.00
9189;BME280;34313;50.780;6.084;2023-08-12T00:41:58;99695.91;;;20.39;100.00
9189;BME280;34313;50.780;6.084;2023-08-12T00:44:24;99684.66;;;20.35;100.00
9189;BME280;34313;50.780;6.084;2023-08-12T00:46:49;99670.31;;;20.27;100.00
9189;BME280;34313;50.780;6.084;2023-08-12T00:49:15;99704.00;;;20.47;100.00
9189;BME280;34313;50.780;6.084;2023-08-12T00:51:42;99705.56;;;20.50;100.00
9189;BME280;34313;50.780;6.084;2023-08-12T00:54:11;99700.50;;;20.47;100.00
9189;BME280;34313;50.780;6.084;2023-08-12T00:56:38;99664.72;;;20.20;100.00
9189;BME280;34313;50.780;6.084;2023-08-12T00:59:05;99695.59;;;20.42;100.00
9189;BME280;34313;50.780;6.084;2023-08-12T01:01:32;99682.69;;;20.28;100.00
9189;BME280;34313;50.780;6.084;2023-08-12T01:03:58;99703.06;;;20.38;100.00
9189;BME280;34313;50.780;6.084;2023-08-12T01:06:23;99679.44;;;20.34;100.00
9189;BME280;34313;50.780;6.084;2023-08-12T01:08:49;99657.25;;;20.14;100.00
9189;BME280;34313;50.780;6.084;2023-08-12T01:13:46;99676.66;;;20.26;100.00
9189;BME280;34313;50.780;6.084;2023-08-12T01:16:16;99676.38;;;20.19;100.00
9189;BME280;34313;50.780;6.084;2023-08-12T01:18:42;99636.75;;;19.95;100.00
9189;BME280;34313;50.780;6.084;2023-08-12T01:21:11;99673.13;;;20.25;100.00
9189;BME280;34313;50.780;6.084;2023-08-12T01:23:39;99655.72;;;20.11;100.00
9189;BME280;34313;50.780;6.084;2023-08-12T01:26:05;99667.81;;;20.15;100.00
9189;BME280;34313;50.780;6.084;2023-08-12T01:28:30;99670.06;;;20.20;100.00
9189;BME280;34313;50.780;6.084;2023-08-12T01:30:57;99653.34;;;20.08;100.00
9189;BME280;34313;50.780;6.084;2023-08-12T01:33:58;99670.88;;;20.20;100.00
9189;BME280;34313;50.780;6.084;2023-08-12T01:36:27;99646.84;;;20.11;100.00
9189;BME280;34313;50.780;6.084;2023-08-12T01:38:56;99638.81;;;20.11;100.00
9189;BME280;34313;50.780;6.084;2023-08-12T01:41:23;99650.78;;;20.16;100.00
9189;BME280;34313;50.780;6.084;2023-08-12T01:43:49;99641.88;;;20.16;100.00
9189;BME280;34313;50.780;6.084;2023-08-12T01:46:14;99634.59;;;20.08;100.00
9189;BME280;34313;50.780;6.084;2023-08-12T01:48:40;99629.69;;;20.03;100.00
9189;BME280;34313;50.780;6.084;2023-08-12T01:51:05;99662.03;;;20.20;100.00
9189;BME280;34313;50.780;6.084;2023-08-12T01:53:31;99644.88;;;20.13;100.00
9189;BME280;34313;50.780;6.084;2023-08-12T01:55:56;99649.22;;;20.14;100.00
9189;BME280;34313;50.780;6.084;2023-08-12T01:58:21;99644.47;;;20.08;100.00
9189;BME280;34313;50.780;6.084;2023-08-12T02:00:47;99656.53;;;20.21;100.00
9189;BME280;34313;50.780;6.084;2023-08-12T02:03:12;99625.63;;;19.99;100.00
9189;BME280;34313;50.780;6.084;2023-08-12T02:05:37;99652.31;;;20.19;100.00
9189;BME280;34313;50.780;6.084;2023-08-12T02:08:04;99633.78;;;20.08;100.00
9189;BME280;34313;50.780;6.084;2023-08-12T02:10:29;99620.44;;;19.98;100.00
9189;BME280;34313;50.780;6.084;2023-08-12T02:12:55;99632.06;;;20.07;100.00
9189;BME280;34313;50.780;6.084;2023-08-12T02:15:20;99624.66;;;20.00;100.00
9189;BME280;34313;50.780;6.084;2023-08-12T02:17:45;99637.16;;;20.10;100.00
9189;BME280;34313;50.780;6.084;2023-08-12T02:20:11;99632.88;;;20.17;100.00
9189;BME280;34313;50.780;6.084;2023-08-12T02:22:36;99617.41;;;20.11;100.00
9189;BME280;34313;50.780;6.084;2023-08-12T02:25:02;99616.72;;;20.09;100.00
9189;BME280;34313;50.780;6.084;2023-08-12T02:27:27;99614.50;;;20.04;100.00
9189;BME280;34313;50.780;6.084;2023-08-12T02:29:52;99604.09;;;20.01;100.00
9189;BME280;34313;50.780;6.084;2023-08-12T02:32:18;99568.00;;;19.77;100.00
9189;BME280;34313;50.780;6.084;2023-08-12T02:34:43;99601.13;;;20.04;100.00
9189;BME280;34313;50.780;6.084;2023-08-12T02:37:08;99607.59;;;20.01;100.00
9189;BME280;34313;50.780;6.084;2023-08-12T02:39:34;99620.97;;;20.01;100.00
9189;BME280;34313;50.780;6.084;2023-08-12T02:41:59;99587.97;;;19.83;100.00
9189;BME280;34313;50.780;6.084;2023-08-12T02:44:24;99589.34;;;19.87;100.00
9189;BME280;34313;50.780;6.084;2023-08-12T02:46:49;99599.56;;;20.01;100.00
9189;BME280;34313;50.780;6.084;2023-08-12T02:49:15;99581.47;;;19.86;100.00
9189;BME280;34313;50.780;6.084;2023-08-12T02:51:40;99577.28;;;19.83;100.00
9189;BME280;34313;50.780;6.084;2023-08-12T02:54:05;99588.78;;;19.93;100.00
9189;BME280;34313;50.780;6.084;2023-08-12T02:56:31;99583.75;;;19.80;100.00
9189;BME280;34313;50.780;6.084;2023-08-12T02:58:56;99556.91;;;19.62;100.00
9189;BME280;34313;50.780;6.084;2023-08-12T03:01:21;99586.16;;;19.74;100.00
9189;BME280;34313;50.780;6.084;2023-08-12T03:03:47;99573.38;;;19.68;100.00
9189;BME280;34313;50.780;6.084;2023-08-12T03:06:12;99565.91;;;19.61;100.00
9189;BME280;34313;50.780;6.084;2023-08-12T03:08:37;99540.25;;;19.41;100.00
9189;BME280;34313;50.780;6.084;2023-08-12T03:11:03;99566.25;;;19.49;100.00
9189;BME280;34313;50.780;6.084;2023-08-12T03:13:31;99567.53;;;19.35;100.00
9189;BME280;34313;50.780;6.084;2023-08-12T03:15:56;99570.50;;;19.32;100.00
9189;BME280;34313;50.780;6.084;2023-08-12T03:18:22;99568.41;;;19.25;100.00
9189;BME280;34313;50.780;6.084;2023-08-12T03:20:47;99563.22;;;19.14;100.00
9189;BME280;34313;50.780;6.084;2023-08-12T03:23:13;99545.25;;;19.06;100.00
9189;BME280;34313;50.780;6.084;2023-08-12T03:25:38;99563.94;;;19.16;100.00
9189;BME280;34313;50.780;6.084;2023-08-12T03:28:04;99552.41;;;19.06;100.00
9189;BME280;34313;50.780;6.084;2023-08-12T03:30:32;99574.63;;;19.16;100.00
9189;BME280;34313;50.780;6.084;2023-08-12T03:33:01;99575.19;;;19.20;100.00
9189;BME280;34313;50.780;6.084;2023-08-12T03:35:26;99563.50;;;19.21;100.00
9189;BME280;34313;50.780;6.084;2023-08-12T03:37:51;99571.78;;;19.27;100.00
9189;BME280;34313;50.780;6.084;2023-08-12T03:40:18;99567.56;;;19.25;100.00
9189;BME280;34313;50.780;6.084;2023-08-12T03:42:48;99564.03;;;19.24;100.00
9189;BME280;34313;50.780;6.084;2023-08-12T03:45:14;99548.59;;;19.18;100.00
9189;BME280;34313;50.780;6.084;2023-08-12T03:47:39;99557.72;;;19.25;100.00
9189;BME280;34313;50.780;6.084;2023-08-12T03:50:09;99563.75;;;19.27;100.00
9189;BME280;34313;50.780;6.084;2023-08-12T03:52:34;99519.66;;;19.04;100.00
9189;BME280;34313;50.780;6.084;2023-08-12T03:55:00;99559.66;;;19.33;100.00
9189;BME280;34313;50.780;6.084;2023-08-12T03:57:25;99546.19;;;19.25;100.00
9189;BME280;34313;50.780;6.084;2023-08-12T03:59:51;99527.50;;;19.15;100.00
9189;BME280;34313;50.780;6.084;2023-08-12T04:02:16;99535.75;;;19.32;100.00
9189;BME280;34313;50.780;6.084;2023-08-12T04:04:41;99507.97;;;19.15;100.00
9189;BME280;34313;50.780;6.084;2023-08-12T04:07:09;99537.03;;;19.27;100.00
9189;BME280;34313;50.780;6.084;2023-08-12T04:09:34;99500.97;;;19.04;100.00
9189;BME280;34313;50.780;6.084;2023-08-12T04:12:00;99523.69;;;19.18;100.00
9189;BME280;34313;50.780;6.084;2023-08-12T04:14:25;99522.03;;;19.17;100.00
9189;BME280;34313;50.780;6.084;2023-08-12T04:16:50;99501.25;;;19.01;100.00
9189;BME280;34313;50.780;6.084;2023-08-12T04:19:16;99516.81;;;19.15;100.00
9189;BME280;34313;50.780;6.084;2023-08-12T04:21:41;99484.13;;;18.94;100.00
9189;BME280;34313;50.780;6.084;2023-08-12T04:24:11;99534.09;;;19.31;100.00
9189;BME280;34313;50.780;6.084;2023-08-12T04:26:43;99532.94;;;19.33;100.00
9189;BME280;34313;50.780;6.084;2023-08-12T04:29:10;99494.47;;;19.06;100.00
9189;BME280;34313;50.780;6.084;2023-08-12T04:31:46;99548.41;;;19.30;100.00
9189;BME280;34313;50.780;6.084;2023-08-12T04:34:12;99521.41;;;19.33;100.00
9189;BME280;34313;50.780;6.084;2023-08-12T04:36:37;99530.94;;;19.45;100.00
9189;BME280;34313;50.780;6.084;2023-08-12T04:39:02;99509.59;;;19.35;100.00
9189;BME280;34313;50.780;6.084;2023-08-12T04:41:28;99524.72;;;19.54;100.00
9189;BME280;34313;50.780;6.084;2023-08-12T04:43:55;99512.28;;;19.63;100.00
9189;BME280;34313;50.780;6.084;2023-08-12T04:46:23;99527.03;;;19.77;100.00
9189;BME280;34313;50.780;6.084;2023-08-12T04:48:57;99536.63;;;19.79;100.00
9189;BME280;34313;50.780;6.084;2023-08-12T04:51:31;99536.31;;;19.82;100.00
9189;BME280;34313;50.780;6.084;2023-08-12T04:54:06;99532.78;;;19.82;100.00
9189;BME280;34313;50.780;6.084;2023-08-12T04:56:35;99529.97;;;19.83;100.00
9189;BME280;34313;50.780;6.084;2023-08-12T04:59:07;99535.06;;;19.77;100.00
9189;BME280;34313;50.780;6.084;2023-08-12T05:01:36;99549.84;;;19.71;100.00
9189;BME280;34313;50.780;6.084;2023-08-12T05:04:01;99552.81;;;19.68;100.00
9189;BME280;34313;50.780;6.084;2023-08-12T05:06:27;99524.16;;;19.51;100.00
9189;BME280;34313;50.780;6.084;2023-08-12T05:08:53;99551.44;;;19.64;100.00
9189;BME280;34313;50.780;6.084;2023-08-12T05:11:18;99550.31;;;19.57;100.00
9189;BME280;34313;50.780;6.084;2023-08-12T05:13:44;99528.56;;;19.42;100.00
9189;BME280;34313;50.780;6.084;2023-08-12T05:16:09;99551.16;;;19.57;100.00
9189;BME280;34313;50.780;6.084;2023-08-12T05:18:34;99518.88;;;19.41;100.00
9189;BME280;34313;50.780;6.084;2023-08-12T05:20:59;99545.56;;;19.51;100.00
9189;BME280;34313;50.780;6.084;2023-08-12T05:23:25;99527.31;;;19.36;100.00
9189;BME280;34313;50.780;6.084;2023-08-12T05:25:50;99515.09;;;19.34;100.00
9189;BME280;34313;50.780;6.084;2023-08-12T05:28:15;99482.09;;;19.05;100.00
9189;BME280;34313;50.780;6.084;2023-08-12T05:30:41;99509.78;;;19.14;100.00
9189;BME280;34313;50.780;6.084;2023-08-12T05:33:06;99504.34;;;19.06;100.00
9189;BME280;34313;50.780;6.084;2023-08-12T05:35:35;99515.56;;;19.10;100.00
9189;BME280;34313;50.780;6.084;2023-08-12T05:38:01;99514.31;;;19.04;100.00
9189;BME280;34313;50.780;6.084;2023-08-12T05:40:27;99517.69;;;18.96;100.00
9189;BME280;34313;50.780;6.084;2023-08-12T05:42:52;99531.59;;;19.10;100.00
9189;BME280;34313;50.780;6.084;2023-08-12T05:45:18;99505.16;;;18.97;100.00
9189;BME280;34313;50.780;6.084;2023-08-12T05:47:43;99492.97;;;18.94;100.00
9189;BME280;34313;50.780;6.084;2023-08-12T05:50:08;99503.78;;;18.93;100.00
9189;BME280;34313;50.780;6.084;2023-08-12T05:52:34;99522.34;;;19.04;100.00
9189;BME280;34313;50.780;6.084;2023-08-12T05:54:59;99490.28;;;19.04;100.00
9189;BME280;34313;50.780;6.084;2023-08-12T05:57:25;99490.13;;;19.05;100.00
9189;BME280;34313;50.780;6.084;2023-08-12T05:59:50;99504.97;;;19.27;100.00
9189;BME280;34313;50.780;6.084;2023-08-12T06:02:15;99505.09;;;19.36;100.00
9189;BME280;34313;50.780;6.084;2023-08-12T06:04:41;99526.22;;;19.67;100.00
9189;BME280;34313;50.780;6.084;2023-08-12T06:07:06;99523.69;;;19.65;100.00
9189;BME280;34313;50.780;6.084;2023-08-12T06:09:31;99517.03;;;19.79;100.00
9189;BME280;34313;50.780;6.084;2023-08-12T06:11:56;99502.25;;;19.85;100.00
9189;BME280;34313;50.780;6.084;2023-08-12T06:14:22;99476.47;;;19.83;100.00
9189;BME280;34313;50.780;6.084;2023-08-12T06:16:47;99494.66;;;20.08;100.00
9189;BME280;34313;50.780;6.084;2023-08-12T06:19:12;99445.63;;;19.89;100.00
9189;BME280;34313;50.780;6.084;2023-08-12T06:21:38;99456.50;;;20.06;100.00
9189;BME280;34313;50.780;6.084;2023-08-12T06:24:03;99433.81;;;20.10;100.00
9189;BME280;34313;50.780;6.084;2023-08-12T06:26:29;99466.59;;;20.48;100.00
9189;BME280;34313;50.780;6.084;2023-08-12T06:28:54;99438.53;;;20.52;100.00
9189;BME280;34313;50.780;6.084;2023-08-12T06:31:19;99442.75;;;20.99;100.00
9189;BME280;34313;50.780;6.084;2023-08-12T06:33:45;99468.28;;;21.45;100.00
9189;BME280;34313;50.780;6.084;2023-08-12T06:36:10;99462.63;;;21.48;100.00
9189;BME280;34313;50.780;6.084;2023-08-12T06:38:36;99474.22;;;21.57;100.00
9189;BME280;34313;50.780;6.084;2023-08-12T06:41:01;99453.09;;;21.28;100.00
9189;BME280;34313;50.780;6.084;2023-08-12T06:43:26;99476.31;;;21.37;100.00
9189;BME280;34313;50.780;6.084;2023-08-12T06:45:51;99471.03;;;21.27;100.00
9189;BME280;34313;50.780;6.084;2023-08-12T06:48:17;99452.59;;;20.98;100.00
9189;BME280;34313;50.780;6.084;2023-08-12T06:50:42;99463.81;;;21.20;100.00
9189;BME280;34313;50.780;6.084;2023-08-12T06:53:07;99466.44;;;21.11;100.00
9189;BME280;34313;50.780;6.084;2023-08-12T06:55:33;99474.69;;;21.18;100.00
9189;BME280;34313;50.780;6.084;2023-08-12T06:57:59;99466.94;;;21.15;100.00
9189;BME280;34313;50.780;6.084;2023-08-12T07:00:25;99470.53;;;21.24;100.00
9189;BME280;34313;50.780;6.084;2023-08-12T07:02:50;99478.63;;;21.32;100.00
9189;BME280;34313;50.780;6.084;2023-08-12T07:05:15;99468.28;;;21.45;100.00
9189;BME280;34313;50.780;6.084;2023-08-12T07:07:41;99470.97;;;21.80;100.00
9189;BME280;34313;50.780;6.084;2023-08-12T07:10:06;99496.78;;;22.32;100.00
9189;BME280;34313;50.780;6.084;2023-08-12T07:12:32;99464.56;;;22.40;100.00
9189;BME280;34313;50.780;6.084;2023-08-12T07:15:01;99500.00;;;22.76;100.00
9189;BME280;34313;50.780;6.084;2023-08-12T07:17:26;99468.78;;;22.67;100.00
9189;BME280;34313;50.780;6.084;2023-08-12T07:19:52;99499.69;;;22.79;100.00
9189;BME280;34313;50.780;6.084;2023-08-12T07:22:18;99481.03;;;22.53;100.00
9189;BME280;34313;50.780;6.084;2023-08-12T07:24:46;99486.06;;;22.40;100.00
9189;BME280;34313;50.780;6.084;2023-08-12T07:27:12;99455.94;;;22.03;100.00
9189;BME280;34313;50.780;6.084;2023-08-12T07:29:37;99453.09;;;22.05;100.00
9189;BME280;34313;50.780;6.084;2023-08-12T07:32:03;99468.16;;;21.98;100.00
9189;BME280;34313;50.780;6.084;2023-08-12T07:34:28;99462.97;;;21.88;100.00
9189;BME280;34313;50.780;6.084;2023-08-12T07:36:54;99458.78;;;21.94;100.00
9189;BME280;34313;50.780;6.084;2023-08-12T07:39:19;99465.28;;;21.91;100.00
9189;BME280;34313;50.780;6.084;2023-08-12T07:41:44;99449.34;;;21.81;100.00
9189;BME280;34313;50.780;6.084;2023-08-12T07:44:10;99443.66;;;21.93;100.00
9189;BME280;34313;50.780;6.084;2023-08-12T07:46:35;99456.06;;;21.85;100.00
9189;BME280;34313;50.780;6.084;2023-08-12T07:49:00;99451.00;;;21.82;100.00
9189;BME280;34313;50.780;6.084;2023-08-12T07:51:26;99462.09;;;21.79;100.00
9189;BME280;34313;50.780;6.084;2023-08-12T07:53:54;99456.03;;;21.77;100.00
9189;BME280;34313;50.780;6.084;2023-08-12T07:56:20;99454.88;;;21.80;100.00
9189;BME280;34313;50.780;6.084;2023-08-12T07:58:45;99455.38;;;21.83;100.00
9189;BME280;34313;50.780;6.084;2023-08-12T08:01:11;99456.22;;;21.84;100.00
9189;BME280;34313;50.780;6.084;2023-08-12T08:03:36;99452.53;;;21.85;100.00
9189;BME280;34313;50.780;6.084;2023-08-12T08:06:02;99460.28;;;21.96;100.00
9189;BME280;34313;50.780;6.084;2023-08-12T08:08:27;99453.94;;;22.05;100.00
9189;BME280;34313;50.780;6.084;2023-08-12T08:10:52;99453.75;;;21.99;100.00
9189;BME280;34313;50.780;6.084;2023-08-12T08:13:18;99436.00;;;22.06;100.00
9189;BME280;34313;50.780;6.084;2023-08-12T08:15:43;99449.41;;;22.14;100.00
9189;BME280;34313;50.780;6.084;2023-08-12T08:18:08;99452.00;;;22.32;100.00
9189;BME280;34313;50.780;6.084;2023-08-12T08:20:33;99459.72;;;22.60;100.00
9189;BME280;34313;50.780;6.084;2023-08-12T08:22:59;99460.53;;;22.85;100.00
9189;BME280;34313;50.780;6.084;2023-08-12T08:25:24;99464.91;;;23.11;100.00
9189;BME280;34313;50.780;6.084;2023-08-12T08:27:49;99476.81;;;23.72;100.00
9189;BME280;34313;50.780;6.084;2023-08-12T08:30:15;99483.44;;;24.47;100.00
9189;BME280;34313;50.780;6.084;2023-08-12T08:32:40;99481.53;;;24.79;100.00
9189;BME280;34313;50.780;6.084;2023-08-12T08:35:06;99481.66;;;25.39;100.00
9189;BME280;34313;50.780;6.084;2023-08-12T08:37:31;99490.34;;;25.85;99.11
9189;BME280;34313;50.780;6.084;2023-08-12T08:39:56;99487.75;;;26.29;95.24
9189;BME280;34313;50.780;6.084;2023-08-12T08:42:24;99491.63;;;26.19;94.83
9189;BME280;34313;50.780;6.084;2023-08-12T08:44:52;99499.19;;;26.09;94.78
9189;BME280;34313;50.780;6.084;2023-08-12T08:47:20;99506.66;;;26.07;95.68
9189;BME280;34313;50.780;6.084;2023-08-12T08:49:47;99501.19;;;25.71;96.32
9189;BME280;34313;50.780;6.084;2023-08-12T08:52:13;99489.91;;;25.52;97.06
9189;BME280;34313;50.780;6.084;2023-08-12T08:54:39;99490.66;;;25.76;97.01
9189;BME280;34313;50.780;6.084;2023-08-12T08:57:05;99482.88;;;26.39;92.71
9189;BME280;34313;50.780;6.084;2023-08-12T08:59:30;99498.38;;;26.52;90.65
9189;BME280;34313;50.780;6.084;2023-08-12T09:01:57;99499.91;;;26.39;89.52
9189;BME280;34313;50.780;6.084;2023-08-12T09:04:24;99505.56;;;26.23;91.18
9189;BME280;34313;50.780;6.084;2023-08-12T09:06:52;99499.59;;;25.76;93.76
9189;BME280;34313;50.780;6.084;2023-08-12T09:09:19;99499.06;;;25.51;95.23
9189;BME280;34313;50.780;6.084;2023-08-12T09:11:45;99503.50;;;25.29;96.77
9189;BME280;34313;50.780;6.084;2023-08-12T09:14:11;99502.50;;;25.07;98.06
9189;BME280;34313;50.780;6.084;2023-08-12T09:16:36;99492.38;;;25.09;98.09
9189;BME280;34313;50.780;6.084;2023-08-12T09:19:02;99487.28;;;25.14;98.27
9189;BME280;34313;50.780;6.084;2023-08-12T09:21:28;99499.13;;;25.43;96.56
9189;BME280;34313;50.780;6.084;2023-08-12T09:23:54;99495.47;;;25.80;95.07
9189;BME280;34313;50.780;6.084;2023-08-12T09:26:20;99504.84;;;26.72;90.30
9189;BME280;34313;50.780;6.084;2023-08-12T09:28:47;99504.19;;;27.48;85.90
9189;BME280;34313;50.780;6.084;2023-08-12T09:31:23;99501.13;;;28.06;82.33
9189;BME280;34313;50.780;6.084;2023-08-12T09:33:49;99499.22;;;28.69;78.56
9189;BME280;34313;50.780;6.084;2023-08-12T09:36:15;99503.13;;;29.53;69.29
9189;BME280;34313;50.780;6.084;2023-08-12T09:38:40;99491.47;;;30.43;62.37
9189;BME280;34313;50.780;6.084;2023-08-12T09:41:06;99501.34;;;30.94;59.38
9189;BME280;34313;50.780;6.084;2023-08-12T09:43:31;99483.97;;;30.38;59.81
9189;BME280;34313;50.780;6.084;2023-08-12T09:45:57;99498.31;;;29.55;62.12
9189;BME280;34313;50.780;6.084;2023-08-12T09:48:26;99497.09;;;28.57;64.63
9189;BME280;34313;50.780;6.084;2023-08-12T09:50:52;99485.72;;;28.07;67.09
9189;BME280;34313;50.780;6.084;2023-08-12T09:53:19;99499.63;;;27.56;69.95
9189;BME280;34313;50.780;6.084;2023-08-12T09:55:47;99487.31;;;27.18;71.01
9189;BME280;34313;50.780;6.084;2023-08-12T09:58:14;99488.78;;;26.92;73.07
9189;BME280;34313;50.780;6.084;2023-08-12T10:00:42;99479.44;;;26.67;74.30
9189;BME280;34313;50.780;6.084;2023-08-12T10:03:08;99480.19;;;26.39;75.59
9189;BME280;34313;50.780;6.084;2023-08-12T10:05:34;99483.50;;;26.19;76.68
9189;BME280;34313;50.780;6.084;2023-08-12T10:08:00;99484.88;;;25.94;78.01
9189;BME280;34313;50.780;6.084;2023-08-12T10:10:28;99498.09;;;25.74;79.34
9189;BME280;34313;50.780;6.084;2023-08-12T10:12:55;99500.34;;;25.40;80.84
9189;BME280;34313;50.780;6.084;2023-08-12T10:15:21;99495.09;;;25.09;82.56
9189;BME280;34313;50.780;6.084;2023-08-12T10:17:46;99503.88;;;24.88;84.06
9189;BME280;34313;50.780;6.084;2023-08-12T10:20:17;99495.41;;;24.91;85.39
9189;BME280;34313;50.780;6.084;2023-08-12T10:22:46;99492.91;;;24.66;87.16
9189;BME280;34313;50.780;6.084;2023-08-12T10:25:13;99488.28;;;24.60;88.28
9189;BME280;34313;50.780;6.084;2023-08-12T10:27:38;99502.34;;;24.70;88.01
9189;BME280;34313;50.780;6.084;2023-08-12T10:30:04;99499.56;;;25.17;85.94
9189;BME280;34313;50.780;6.084;2023-08-12T10:32:31;99492.81;;;25.65;81.80
9189;BME280;34313;50.780;6.084;2023-08-12T10:34:57;99488.78;;;26.28;79.02
9189;BME280;34313;50.780;6.084;2023-08-12T10:37:26;99494.94;;;27.08;75.62
9189;BME280;34313;50.780;6.084;2023-08-12T10:39:53;99495.50;;;27.66;71.72
9189;BME280;34313;50.780;6.084;2023-08-12T10:42:44;99496.59;;;28.20;68.35
9189;BME280;34313;50.780;6.084;2023-08-12T10:45:17;99495.56;;;28.21;66.74
9189;BME280;34313;50.780;6.084;2023-08-12T10:47:48;99497.84;;;28.31;66.62
9189;BME280;34313;50.780;6.084;2023-08-12T10:50:21;99491.78;;;28.22;66.65
9189;BME280;34313;50.780;6.084;2023-08-12T10:52:47;99491.94;;;28.01;66.82
9189;BME280;34313;50.780;6.084;2023-08-12T10:55:23;99491.63;;;27.76;67.67
9189;BME280;34313;50.780;6.084;2023-08-12T10:57:50;99486.09;;;27.97;67.22
9189;BME280;34313;50.780;6.084;2023-08-12T11:00:23;99476.44;;;27.81;67.71
9189;BME280;34313;50.780;6.084;2023-08-12T11:02:50;99485.97;;;27.70;67.80
9189;BME280;34313;50.780;6.084;2023-08-12T11:05:16;99484.16;;;27.84;67.65
9189;BME280;34313;50.780;6.084;2023-08-12T11:07:56;99489.22;;;27.59;68.58
9189;BME280;34313;50.780;6.084;2023-08-12T11:10:33;99476.97;;;28.12;67.85
9189;BME280;34313;50.780;6.084;2023-08-12T11:12:59;99478.97;;;28.91;65.05
9189;BME280;34313;50.780;6.084;2023-08-12T11:15:40;99467.44;;;29.42;62.83
9189;BME280;34313;50.780;6.084;2023-08-12T11:18:12;99471.25;;;29.87;61.82
9189;BME280;34313;50.780;6.084;2023-08-12T11:20:38;99462.78;;;29.63;61.71
9189;BME280;34313;50.780;6.084;2023-08-12T11:23:05;99464.69;;;29.56;61.14
9189;BME280;34313;50.780;6.084;2023-08-12T11:25:31;99460.81;;;29.18;62.75
9189;BME280;34313;50.780;6.084;2023-08-12T11:27:58;99458.97;;;28.72;63.91
9189;BME280;34313;50.780;6.084;2023-08-12T11:30:24;99459.53;;;28.94;64.24
9189;BME280;34313;50.780;6.084;2023-08-12T11:32:52;99461.63;;;29.19;62.91
9189;BME280;34313;50.780;6.084;2023-08-12T11:35:19;99454.66;;;29.50;61.63
9189;BME280;34313;50.780;6.084;2023-08-12T11:37:46;99453.34;;;29.72;60.40
9189;BME280;34313;50.780;6.084;2023-08-12T11:40:13;99455.25;;;29.65;60.62
9189;BME280;34313;50.780;6.084;2023-08-12T11:42:44;99460.31;;;29.41;61.01
9189;BME280;34313;50.780;6.084;2023-08-12T11:45:10;99457.59;;;29.41;61.03
9189;BME280;34313;50.780;6.084;2023-08-12T11:47:36;99453.75;;;29.69;59.83
9189;BME280;34313;50.780;6.084;2023-08-12T11:50:03;99452.06;;;29.82;59.98
9189;BME280;34313;50.780;6.084;2023-08-12T11:52:29;99472.97;;;29.74;60.13
9189;BME280;34313;50.780;6.084;2023-08-12T11:54:55;99479.94;;;28.43;64.49
9189;BME280;34313;50.780;6.084;2023-08-12T11:57:22;99489.44;;;27.58;70.22
9189;BME280;34313;50.780;6.084;2023-08-12T11:59:49;99486.41;;;26.61;74.00
9189;BME280;34313;50.780;6.084;2023-08-12T12:02:15;99494.38;;;26.26;75.74
9189;BME280;34313;50.780;6.084;2023-08-12T12:04:41;99503.84;;;26.37;77.74
9189;BME280;34313;50.780;6.084;2023-08-12T12:07:23;99507.19;;;26.60;77.11
9189;BME280;34313;50.780;6.084;2023-08-12T12:09:52;99512.84;;;27.09;75.69
9189;BME280;34313;50.780;6.084;2023-08-12T12:12:21;99509.72;;;27.68;74.36
9189;BME280;34313;50.780;6.084;2023-08-12T12:14:47;99517.28;;;28.41;71.33
9189;BME280;34313;50.780;6.084;2023-08-12T12:17:14;99516.31;;;28.76;68.85
9189;BME280;34313;50.780;6.084;2023-08-12T12:19:40;99529.28;;;28.05;67.89
9189;BME280;34313;50.780;6.084;2023-08-12T12:22:06;99523.22;;;27.62;69.83
9189;BME280;34313;50.780;6.084;2023-08-12T12:24:43;99527.78;;;27.61;69.16
9189;BME280;34313;50.780;6.084;2023-08-12T12:27:10;99535.56;;;27.78;68.77
9189;BME280;34313;50.780;6.084;2023-08-12T12:29:36;99530.13;;;27.71;69.10
9189;BME280;34313;50.780;6.084;2023-08-12T12:32:01;99535.81;;;27.83;67.86
9189;BME280;34313;50.780;6.084;2023-08-12T12:34:26;99552.13;;;27.54;67.69
9189;BME280;34313;50.780;6.084;2023-08-12T12:36:52;99550.69;;;27.59;67.40
9189;BME280;34313;50.780;6.084;2023-08-12T12:39:17;99554.81;;;27.54;66.67
9189;BME280;34313;50.780;6.084;2023-08-12T12:41:42;99558.25;;;27.35;66.42
9189;BME280;34313;50.780;6.084;2023-08-12T12:44:08;99551.59;;;27.16;67.60
9189;BME280;34313;50.780;6.084;2023-08-12T12:46:33;99554.03;;;27.32;67.06
9189;BME280;34313;50.780;6.084;2023-08-12T12:48:58;99548.84;;;27.66;66.26
9189;BME280;34313;50.780;6.084;2023-08-12T12:51:23;99555.00;;;27.88;64.62
9189;BME280;34313;50.780;6.084;2023-08-12T12:53:49;99541.00;;;28.19;63.27
9189;BME280;34313;50.780;6.084;2023-08-12T12:56:14;99545.88;;;28.44;62.05
9189;BME280;34313;50.780;6.084;2023-08-12T12:58:39;99539.25;;;28.60;61.74
9189;BME280;34313;50.780;6.084;2023-08-12T13:01:05;99546.16;;;28.89;61.82
9189;BME280;34313;50.780;6.084;2023-08-12T13:03:31;99551.28;;;28.51;61.68